createdAt,value
2022-09-03T00:03:00.861Z,19.83
2022-09-03T00:06:08.979Z,19.61
2022-09-03T00:09:15.599Z,19.83
2022-09-03T00:12:23.939Z,19.77
2022-09-03T00:15:26.851Z,19.52
2022-09-03T00:18:30.888Z,19.35
2022-09-03T00:21:38.468Z,19.46
2022-09-03T00:24:43.131Z,19.41
2022-09-03T00:27:51.212Z,19.39
2022-09-03T00:31:07.690Z,19.41
2022-09-03T00:34:13.617Z,19.31
2022-09-03T00:37:16.758Z,19.30
2022-09-03T00:40:27.637Z,19.41
2022-09-03T00:43:39.623Z,19.59
2022-09-03T00:46:46.398Z,19.43
2022-09-03T00:49:56.616Z,19.29
2022-09-03T00:53:04.939Z,19.34
2022-09-03T00:56:16.224Z,19.14
2022-09-03T00:59:28.002Z,19.42
2022-09-03T01:02:35.480Z,19.34
2022-09-03T01:05:53.207Z,19.50
2022-09-03T01:09:10.434Z,19.16
2022-09-03T01:12:16.626Z,19.39
2022-09-03T01:15:24.980Z,19.42
2022-09-03T01:18:35.479Z,19.42
2022-09-03T01:21:47.748Z,19.39
2022-09-03T01:25:08.198Z,19.32
2022-09-03T01:28:20.659Z,19.30
2022-09-03T01:31:30.509Z,19.23
2022-09-03T01:34:39.392Z,19.27
2022-09-03T01:37:48.675Z,19.23
2022-09-03T01:40:56.119Z,19.23
2022-09-03T01:44:04.837Z,19.26
2022-09-03T01:47:13.318Z,19.11
2022-09-03T01:50:21.370Z,19.40
2022-09-03T01:53:36.138Z,19.21
2022-09-03T01:56:47.360Z,19.22
2022-09-03T01:59:56.892Z,19.28
2022-09-03T02:03:04.234Z,19.20
2022-09-03T02:06:07.843Z,19.15
2022-09-03T02:09:10.672Z,19.20
2022-09-03T02:12:18.762Z,18.85
2022-09-03T02:15:24.658Z,18.97
2022-09-03T02:18:30.999Z,19.05
2022-09-03T02:21:35.670Z,18.99
2022-09-03T02:24:38.558Z,19.05
2022-09-03T02:27:41.633Z,18.96
2022-09-03T02:30:45.904Z,18.92
2022-09-03T02:33:50.948Z,18.99
2022-09-03T02:36:54.635Z,18.93
2022-09-03T02:39:58.065Z,18.86
2022-09-03T02:43:01.328Z,18.91
2022-09-03T02:46:06.699Z,18.81
2022-09-03T02:49:09.623Z,18.66
2022-09-03T02:52:12.454Z,18.80
2022-09-03T02:55:15.697Z,18.81
2022-09-03T02:58:18.559Z,18.64
2022-09-03T03:01:24.119Z,18.69
2022-09-03T03:04:27.271Z,18.70
2022-09-03T03:07:33.222Z,18.55
2022-09-03T03:10:36.062Z,18.78
2022-09-03T03:13:38.897Z,18.59
2022-09-03T03:16:43.396Z,18.73
2022-09-03T03:19:46.192Z,18.78
2022-09-03T03:22:49.047Z,18.78
2022-09-03T03:25:51.949Z,19.03
2022-09-03T03:28:57.918Z,18.76
2022-09-03T03:32:02.066Z,18.73
2022-09-03T03:35:05.023Z,18.84
2022-09-03T03:38:07.826Z,18.93
2022-09-03T03:41:11.369Z,18.93
2022-09-03T03:44:14.239Z,18.81
2022-09-03T03:47:18.448Z,18.96
2022-09-03T03:50:21.230Z,18.89
2022-09-03T03:53:24.081Z,18.88
2022-09-03T03:56:27.566Z,18.96
2022-09-03T03:59:30.445Z,18.91
2022-09-03T04:02:38.926Z,18.99
2022-09-03T04:05:48.591Z,19.02
2022-09-03T04:08:51.599Z,18.99
2022-09-03T04:11:54.383Z,19.07
2022-09-03T04:14:57.159Z,19.04
2022-09-03T04:18:01.560Z,19.28
2022-09-03T04:21:05.665Z,19.25
2022-09-03T04:24:08.619Z,19.16
2022-09-03T04:27:11.440Z,19.77
2022-09-03T04:30:14.488Z,19.89
2022-09-03T04:33:18.597Z,19.91
2022-09-03T04:36:22.129Z,19.88
2022-09-03T04:39:25.063Z,19.70
2022-09-03T04:42:28.806Z,20.15
2022-09-03T04:45:32.032Z,20.18
2022-09-03T04:48:37.871Z,20.04
2022-09-03T04:51:40.759Z,19.98
2022-09-03T04:54:43.800Z,20.18
2022-09-03T04:57:46.652Z,20.18
2022-09-03T05:00:49.705Z,20.30
2022-09-03T05:03:54.016Z,20.25
2022-09-03T05:06:56.886Z,20.20
2022-09-03T05:09:59.702Z,20.45
2022-09-03T05:13:03.140Z,20.25
2022-09-03T05:16:07.356Z,20.44
2022-09-03T05:19:12.676Z,20.37
2022-09-03T05:22:21.332Z,20.52
2022-09-03T05:25:24.367Z,20.51
2022-09-03T05:28:28.225Z,20.61
2022-09-03T05:31:32.719Z,20.65
2022-09-03T05:34:36.951Z,20.61
2022-09-03T05:37:39.923Z,20.69
2022-09-03T05:40:43.015Z,20.55
2022-09-03T05:43:46.079Z,20.71
2022-09-03T05:46:48.954Z,20.71
2022-09-03T05:49:53.211Z,20.70
2022-09-03T05:52:56.059Z,20.67
2022-09-03T05:55:59.353Z,20.83
2022-09-03T05:59:04.771Z,20.94
2022-09-03T06:02:07.663Z,20.96
2022-09-03T06:05:12.721Z,21.06
2022-09-03T06:08:15.515Z,21.05
2022-09-03T06:11:18.387Z,20.99
2022-09-03T06:14:21.892Z,21.04
2022-09-03T06:17:24.688Z,21.03
2022-09-03T06:20:29.977Z,20.94
2022-09-03T06:23:33.292Z,21.03
2022-09-03T06:26:36.119Z,21.05
2022-09-03T06:29:40.010Z,21.18
2022-09-03T06:32:44.928Z,21.33
2022-09-03T06:35:49.123Z,21.24
2022-09-03T06:38:53.298Z,21.17
2022-09-03T06:41:56.496Z,21.43
2022-09-03T06:44:59.275Z,21.49
2022-09-03T06:48:02.139Z,21.57
2022-09-03T06:51:07.629Z,21.59
2022-09-03T06:54:11.296Z,21.66
2022-09-03T06:57:14.156Z,21.62
2022-09-03T07:00:17.424Z,21.76
2022-09-03T07:03:20.436Z,22.00
2022-09-03T07:06:25.363Z,21.91
2022-09-03T07:09:28.352Z,21.86
2022-09-03T07:12:37.394Z,21.93
2022-09-03T07:15:40.340Z,22.02
2022-09-03T07:18:44.610Z,22.04
2022-09-03T07:21:50.779Z,21.95
2022-09-03T07:24:53.758Z,22.15
2022-09-03T07:27:57.232Z,22.23
2022-09-03T07:31:03.430Z,22.22
2022-09-03T07:34:10.003Z,22.24
2022-09-03T07:37:14.543Z,22.31
2022-09-03T07:40:20.072Z,22.30
2022-09-03T07:43:23.128Z,22.24
2022-09-03T07:46:27.300Z,22.35
2022-09-03T07:49:30.294Z,22.40
2022-09-03T07:52:34.559Z,22.38
2022-09-03T07:55:37.287Z,22.32
2022-09-03T07:58:41.131Z,22.32
2022-09-03T08:01:44.075Z,22.23
2022-09-03T08:04:47.082Z,22.36
2022-09-03T08:07:51.505Z,22.48
2022-09-03T08:10:54.267Z,22.56
2022-09-03T08:14:01.366Z,22.62
2022-09-03T08:17:04.773Z,22.56
2022-09-03T08:20:08.332Z,22.64
2022-09-03T08:23:12.609Z,22.69
2022-09-03T08:26:16.045Z,22.78
2022-09-03T08:29:19.032Z,22.95
2022-09-03T08:32:23.017Z,23.05
2022-09-03T08:35:25.827Z,23.07
2022-09-03T08:38:30.491Z,23.17
2022-09-03T08:41:38.785Z,23.15
2022-09-03T08:44:47.430Z,23.19
2022-09-03T08:47:53.335Z,23.31
2022-09-03T08:51:00.719Z,23.31
2022-09-03T08:54:05.740Z,23.42
2022-09-03T08:57:10.151Z,23.55
2022-09-03T09:00:13.781Z,23.52
2022-09-03T09:03:29.223Z,23.50
2022-09-03T09:06:36.413Z,23.41
2022-09-03T09:09:49.428Z,23.58
2022-09-03T09:13:00.039Z,23.67
2022-09-03T09:16:07.735Z,23.64
2022-09-03T09:19:18.453Z,23.63
2022-09-03T09:22:25.784Z,23.62
2022-09-03T09:25:31.815Z,23.67
2022-09-03T09:28:36.362Z,23.77
2022-09-03T09:31:41.862Z,23.84
2022-09-03T09:34:47.514Z,23.95
2022-09-03T09:37:54.997Z,23.93
2022-09-03T09:41:09.870Z,23.94
2022-09-03T09:44:20.205Z,23.95
2022-09-03T09:47:25.019Z,24.00
2022-09-03T09:50:28.013Z,24.13
2022-09-03T09:53:30.981Z,24.06
2022-09-03T09:56:35.182Z,24.03
2022-09-03T09:59:38.936Z,24.08
2022-09-03T10:02:42.704Z,23.93
2022-09-03T10:05:45.862Z,23.86
2022-09-03T10:08:48.899Z,23.86
2022-09-03T10:11:58.371Z,23.83
2022-09-03T10:15:04.734Z,23.91
2022-09-03T10:18:13.739Z,23.99
2022-09-03T10:21:18.856Z,24.05
2022-09-03T10:24:30.130Z,23.97
2022-09-03T10:27:34.413Z,24.05
2022-09-03T10:30:47.074Z,24.14
2022-09-03T10:33:52.780Z,24.01
2022-09-03T10:36:59.167Z,23.91
2022-09-03T10:40:08.270Z,24.09
2022-09-03T10:43:21.297Z,24.17
2022-09-03T10:46:26.749Z,24.16
2022-09-03T10:49:36.383Z,24.22
2022-09-03T10:52:44.655Z,24.27
2022-09-03T10:55:51.220Z,24.30
2022-09-03T10:59:04.963Z,24.28
2022-09-03T11:02:16.847Z,24.33
2022-09-03T11:05:22.482Z,24.20
2022-09-03T11:08:27.230Z,24.29
2022-09-03T11:11:34.072Z,24.26
2022-09-03T11:14:41.984Z,24.33
2022-09-03T11:17:49.403Z,24.18
2022-09-03T11:20:54.463Z,24.19
2022-09-03T11:24:03.839Z,24.24
2022-09-03T11:27:15.791Z,24.38
2022-09-03T11:30:26.284Z,24.16
2022-09-03T11:33:30.193Z,24.25
2022-09-03T11:36:34.527Z,24.20
2022-09-03T11:39:38.116Z,24.22
2022-09-03T11:42:42.214Z,24.13
2022-09-03T11:45:46.513Z,24.08
2022-09-03T11:48:50.287Z,24.13
2022-09-03T11:51:59.195Z,24.14
2022-09-03T11:55:02.471Z,24.12
2022-09-03T11:58:12.454Z,24.23
2022-09-03T12:01:18.265Z,24.24
2022-09-03T12:04:23.498Z,24.32
2022-09-03T12:07:33.902Z,24.18
2022-09-03T12:10:44.069Z,24.31
2022-09-03T12:13:51.877Z,24.42
2022-09-03T12:17:01.678Z,24.53
2022-09-03T12:20:13.187Z,24.58
2022-09-03T12:23:29.039Z,24.58
2022-09-03T12:26:31.952Z,24.67
2022-09-03T12:29:34.771Z,24.63
2022-09-03T12:32:40.436Z,24.77
2022-09-03T12:35:59.517Z,24.93
2022-09-03T12:39:12.004Z,24.93
2022-09-03T12:42:19.903Z,24.98
2022-09-03T12:45:24.249Z,24.99
2022-09-03T12:48:28.555Z,25.08
2022-09-03T12:51:56.285Z,24.97
2022-09-03T12:55:01.447Z,25.00
2022-09-03T12:58:10.243Z,25.19
2022-09-03T13:01:18.107Z,25.10
2022-09-03T13:04:26.899Z,25.27
2022-09-03T13:07:33.666Z,25.34
2022-09-03T13:10:38.144Z,25.15
2022-09-03T13:13:42.463Z,25.00
2022-09-03T13:16:56.788Z,24.91
2022-09-03T13:20:16.818Z,24.84
2022-09-03T13:23:30.876Z,24.90
2022-09-03T13:26:37.631Z,24.98
2022-09-03T13:29:44.881Z,24.91
2022-09-03T13:32:54.690Z,24.98
2022-09-03T13:36:03.702Z,24.96
2022-09-03T13:39:08.957Z,24.89
2022-09-03T13:42:14.570Z,25.05
2022-09-03T13:45:22.683Z,24.85
2022-09-03T13:48:47.587Z,24.84
2022-09-03T13:51:53.839Z,24.64
2022-09-03T13:55:00.506Z,24.48
2022-09-03T13:58:07.591Z,24.42
2022-09-03T14:01:17.561Z,24.35
2022-09-03T14:04:24.193Z,24.26
2022-09-03T14:07:35.327Z,24.21
2022-09-03T14:10:52.483Z,24.06
2022-09-03T14:14:03.361Z,24.11
2022-09-03T14:17:12.516Z,24.04
2022-09-03T14:20:20.671Z,24.02
2022-09-03T14:23:32.552Z,23.99
2022-09-03T14:26:40.215Z,23.86
2022-09-03T14:29:51.880Z,23.98
2022-09-03T14:32:58.489Z,23.96
2022-09-03T14:36:10.403Z,23.86
2022-09-03T14:39:32.633Z,23.94
2022-09-03T14:42:45.824Z,23.85
2022-09-03T14:46:13.614Z,23.89
2022-09-03T14:49:28.010Z,23.82
2022-09-03T14:52:40.840Z,23.66
2022-09-03T14:55:52.262Z,23.83
2022-09-03T14:59:09.948Z,23.77
2022-09-03T15:02:33.756Z,23.41
2022-09-03T15:05:49.839Z,23.47
2022-09-03T15:09:00.503Z,23.55
2022-09-03T15:12:09.807Z,23.43
2022-09-03T15:15:16.579Z,23.39
2022-09-03T15:18:26.468Z,23.20
2022-09-03T15:21:33.126Z,23.18
2022-09-03T15:24:41.522Z,23.20
2022-09-03T15:27:59.574Z,20.97
2022-09-03T15:31:05.074Z,20.84
2022-09-03T15:34:15.095Z,20.10
2022-09-03T15:37:21.003Z,20.29
2022-09-03T15:40:27.072Z,20.04
2022-09-03T15:43:32.446Z,20.71
2022-09-03T15:46:50.119Z,19.57
2022-09-03T15:49:57.399Z,19.54
2022-09-03T15:53:03.868Z,19.02
2022-09-03T15:56:13.905Z,19.47
2022-09-03T15:59:20.916Z,19.05
2022-09-03T16:02:26.132Z,19.17
2022-09-03T16:05:40.131Z,19.12
2022-09-03T16:08:44.879Z,18.96
2022-09-03T16:11:53.381Z,19.16
2022-09-03T16:15:01.289Z,18.45
2022-09-03T16:18:07.776Z,17.99
2022-09-03T16:21:13.546Z,18.44
2022-09-03T16:24:20.027Z,18.91
2022-09-03T16:27:24.115Z,17.99
2022-09-03T16:30:37.591Z,18.62
2022-09-03T16:33:50.252Z,18.10
2022-09-03T16:36:56.009Z,16.72
2022-09-03T16:40:04.671Z,16.11
2022-09-03T16:43:36.921Z,16.15
2022-09-03T16:46:41.976Z,16.08
2022-09-03T16:49:52.235Z,16.20
2022-09-03T16:53:01.743Z,16.50
2022-09-03T16:56:12.832Z,18.34
2022-09-03T16:59:21.805Z,20.36
2022-09-03T17:02:41.738Z,20.76
2022-09-03T17:05:55.712Z,20.91
2022-09-03T17:09:05.505Z,21.13
2022-09-03T17:12:14.575Z,21.26
2022-09-03T17:15:30.772Z,21.21
2022-09-03T17:18:45.385Z,21.23
2022-09-03T17:21:50.323Z,21.28
2022-09-03T17:25:05.074Z,21.30
2022-09-03T17:28:26.234Z,21.40
2022-09-03T17:32:01.453Z,21.24
2022-09-03T17:35:16.601Z,21.35
2022-09-03T17:38:31.987Z,21.23
2022-09-03T17:41:43.274Z,21.34
2022-09-03T17:44:51.423Z,21.24
2022-09-03T17:48:07.593Z,21.30
2022-09-03T17:51:16.773Z,21.25
2022-09-03T17:54:26.155Z,21.33
2022-09-03T17:57:32.392Z,21.35
2022-09-03T18:00:47.197Z,21.40
2022-09-03T18:03:56.708Z,21.26
2022-09-03T18:07:06.992Z,21.25
2022-09-03T18:10:18.601Z,21.35
2022-09-03T18:13:27.888Z,21.28
2022-09-03T18:16:35.069Z,21.29
2022-09-03T18:20:00.538Z,21.29
2022-09-03T18:23:26.377Z,21.25
2022-09-03T18:26:50.799Z,21.30
2022-09-03T18:30:14.490Z,21.24
2022-09-03T18:33:39.572Z,21.20
2022-09-03T18:36:59.987Z,21.23
2022-09-03T18:40:22.221Z,21.26
2022-09-03T18:43:48.687Z,21.09
2022-09-03T18:51:00.624Z,21.04
2022-09-03T18:54:40.579Z,21.07
2022-09-03T18:58:21.186Z,20.95
2022-09-03T19:01:46.957Z,20.88
2022-09-03T19:05:15.432Z,21.13
2022-09-03T19:08:40.525Z,21.01
2022-09-03T19:12:06.384Z,21.12
2022-09-03T19:15:33.332Z,21.03
2022-09-03T19:19:14.297Z,21.12
2022-09-03T19:22:40.259Z,21.04
2022-09-03T19:26:01.733Z,21.15
2022-09-03T19:29:26.196Z,21.12
2022-09-03T19:32:53.833Z,21.05
2022-09-03T19:36:21.078Z,20.92
2022-09-03T19:39:49.726Z,20.89
2022-09-03T19:43:13.375Z,21.01
2022-09-03T19:46:38.097Z,20.73
2022-09-03T19:50:09.767Z,20.90
2022-09-03T19:53:31.520Z,20.95
2022-09-03T19:56:53.469Z,20.80
2022-09-03T20:00:18.125Z,20.61
2022-09-03T20:03:50.539Z,20.95
2022-09-03T20:07:12.391Z,21.03
2022-09-03T20:10:25.272Z,20.83
2022-09-03T20:13:28.195Z,20.91
2022-09-03T20:16:32.955Z,20.91
2022-09-03T20:19:43.392Z,20.87
2022-09-03T20:22:50.994Z,20.72
2022-09-03T20:26:10.599Z,20.76
2022-09-03T20:29:25.508Z,20.94
2022-09-03T20:32:35.899Z,20.40
2022-09-03T20:35:45.139Z,20.76
2022-09-03T20:38:55.340Z,20.62
2022-09-03T20:42:04.538Z,20.87
2022-09-03T20:45:12.658Z,20.83
2022-09-03T20:48:22.109Z,20.66
2022-09-03T20:51:28.267Z,20.73
2022-09-03T20:54:36.183Z,20.80
2022-09-03T20:57:45.938Z,20.72
2022-09-03T21:00:54.152Z,20.48
2022-09-03T21:04:04.328Z,20.38
2022-09-03T21:07:12.820Z,20.38
2022-09-03T21:10:20.294Z,20.25
2022-09-03T21:13:32.946Z,20.06
2022-09-03T21:16:48.800Z,20.13
2022-09-03T21:19:57.531Z,20.09
2022-09-03T21:23:06.726Z,20.12
2022-09-03T21:26:16.301Z,20.03
2022-09-03T21:29:22.474Z,19.97
2022-09-03T21:32:28.945Z,19.75
2022-09-03T21:35:34.079Z,20.02
2022-09-03T21:38:38.082Z,19.78
2022-09-03T21:41:46.981Z,19.63
2022-09-03T21:44:54.242Z,19.85
2022-09-03T21:47:59.574Z,19.83
2022-09-03T21:51:05.730Z,19.71
2022-09-03T21:54:11.667Z,19.68
2022-09-03T21:57:22.149Z,19.68
2022-09-03T22:00:32.522Z,19.59
2022-09-03T22:03:35.330Z,19.70
2022-09-03T22:06:41.851Z,19.57
2022-09-03T22:09:47.524Z,19.81
2022-09-03T22:12:57.162Z,19.54
2022-09-03T22:16:06.244Z,19.59
2022-09-03T22:19:09.120Z,19.60
2022-09-03T22:22:14.137Z,19.55
2022-09-03T22:25:18.697Z,19.69
2022-09-03T22:28:28.709Z,19.53
2022-09-03T22:31:37.159Z,19.66
2022-09-03T22:34:51.941Z,19.67
2022-09-03T22:38:12.900Z,19.66
2022-09-03T22:41:23.555Z,19.47
2022-09-03T22:44:37.306Z,19.45
2022-09-03T22:47:46.799Z,19.56
2022-09-03T22:50:53.729Z,19.76
2022-09-03T22:54:05.376Z,19.64
2022-09-03T22:57:09.950Z,19.64
2022-09-03T23:00:14.626Z,19.51
2022-09-03T23:03:20.764Z,19.41
2022-09-03T23:06:27.099Z,19.43
2022-09-03T23:09:31.247Z,19.31
2022-09-03T23:12:38.312Z,19.32
2022-09-03T23:15:42.931Z,19.15
2022-09-03T23:18:47.623Z,19.13
2022-09-03T23:21:55.686Z,19.30
2022-09-03T23:25:01.922Z,19.10
2022-09-03T23:28:09.985Z,19.07
2022-09-03T23:31:17.554Z,19.18
2022-09-03T23:34:21.146Z,19.34
2022-09-03T23:37:33.669Z,19.33
2022-09-03T23:40:45.504Z,19.16
2022-09-03T23:44:05.073Z,19.25
2022-09-03T23:47:13.833Z,19.07
2022-09-03T23:50:27.203Z,18.90
2022-09-03T23:53:37.533Z,19.02
2022-09-03T23:56:52.035Z,18.84
